Time;durP1;ratioP1;P1;durP2;ratioP2;P2;SDS_P1;SDS_P2;PMS_P1;PMS_P2;Temp;Humidity;BMP_temperature;BMP_pressure;BME280_temperature;BME280_humidity;BME280_pressure;Samples;Min_cycle;Max_cycle;Signal;HPM_P1;HPM_P2
2023/05/01 00:01:32;;;;;;;11.55;10.27;;;9.70;99.90;;;;;;6212810;28;20046;-77
2023/05/01 00:04:33;;;;;;;10.05;9.05;;;9.70;99.90;;;;;;6209711;28;20054;-77
2023/05/01 00:07:37;;;;;;;12.27;9.57;;;9.70;99.90;;;;;;6212577;28;20420;-77
2023/05/01 00:10:39;;;;;;;12.70;10.07;;;9.70;99.90;;;;;;6216535;28;20058;-77
2023/05/01 00:13:41;;;;;;;11.55;9.48;;;9.60;99.90;;;;;;6216631;28;20053;-77
2023/05/01 00:16:43;;;;;;;10.60;9.50;;;9.60;99.90;;;;;;6217260;28;20057;-77
2023/05/01 00:19:44;;;;;;;11.05;9.88;;;9.60;99.90;;;;;;6211901;28;20060;-77
2023/05/01 00:22:48;;;;;;;11.43;10.02;;;9.60;99.90;;;;;;6193120;28;20043;-77
2023/05/01 00:25:49;;;;;;;17.10;10.38;;;9.60;99.90;;;;;;6204576;28;20065;-77
2023/05/01 00:28:51;;;;;;;11.75;10.10;;;9.60;99.90;;;;;;6218082;28;20055;-77
2023/05/01 00:31:54;;;;;;;10.70;9.05;;;9.60;99.90;;;;;;6218192;28;20054;-77
2023/05/01 00:34:56;;;;;;;10.45;9.40;;;9.60;99.90;;;;;;6218234;28;20535;-78
2023/05/01 00:37:59;;;;;;;11.18;9.70;;;9.60;99.90;;;;;;6218522;28;20172;-77
2023/05/01 00:41:01;;;;;;;14.23;9.60;;;9.70;99.90;;;;;;6217839;28;20038;-78
2023/05/01 00:44:03;;;;;;;14.02;10.75;;;9.70;99.90;;;;;;6218356;28;20060;-77
2023/05/01 00:47:05;;;;;;;10.43;9.40;;;9.80;99.90;;;;;;6218049;28;20058;-77
2023/05/01 00:50:08;;;;;;;13.25;9.10;;;9.80;99.90;;;;;;6218754;28;20168;-78
2023/05/01 00:53:11;;;;;;;10.02;8.98;;;9.80;99.90;;;;;;6206827;28;20064;-77
2023/05/01 00:56:12;;;;;;;13.55;9.65;;;9.90;99.90;;;;;;6190174;28;20129;-77
2023/05/01 00:59:14;;;;;;;13.18;9.45;;;9.90;99.90;;;;;;6189688;28;20053;-77
2023/05/01 01:02:16;;;;;;;10.73;9.07;;;10.00;99.90;;;;;;6186786;28;20050;-78
2023/05/01 01:05:21;;;;;;;10.65;9.48;;;10.00;99.90;;;;;;6192842;28;23249;-77
2023/05/01 01:08:29;;;;;;;13.45;10.45;;;10.00;99.90;;;;;;6196119;28;20547;-77
2023/05/01 01:11:38;;;;;;;10.45;9.10;;;10.10;99.90;;;;;;6195279;28;20151;-78
2023/05/01 01:14:45;;;;;;;10.18;9.10;;;10.10;99.90;;;;;;6194908;28;20046;-77
2023/05/01 01:17:57;;;;;;;12.03;10.00;;;10.20;99.90;;;;;;6196847;28;20634;-77
2023/05/01 01:21:05;;;;;;;11.30;9.65;;;10.20;99.90;;;;;;6194510;28;20046;-77
2023/05/01 01:24:35;;;;;;;11.60;10.40;;;10.30;99.90;;;;;;6194631;28;20572;-77
2023/05/01 01:27:58;;;;;;;13.80;10.57;;;10.40;99.90;;;;;;6220841;28;20049;-77
2023/05/01 01:31:11;;;;;;;13.20;11.48;;;10.40;99.90;;;;;;6218839;28;20057;-77
2023/05/01 01:34:19;;;;;;;17.88;11.75;;;10.50;99.90;;;;;;6216732;28;20492;-76
2023/05/01 01:37:22;;;;;;;;;;;10.50;99.90;;;;;;6217975;28;20485;-77
2023/05/01 01:40:28;;;;;;;15.55;12.85;;;10.60;99.90;;;;;;6217437;28;19929;-77
2023/05/01 01:43:38;;;;;;;13.52;12.13;;;10.60;99.90;;;;;;6217059;28;20489;-77
2023/05/01 01:46:42;;;;;;;15.88;13.85;;;10.60;99.90;;;;;;6215473;28;20069;-77
2023/05/01 01:49:50;;;;;;;13.68;12.18;;;10.60;99.90;;;;;;6216709;28;20053;-77
2023/05/01 01:52:54;;;;;;;13.55;12.25;;;10.60;99.90;;;;;;6217536;28;20132;-77
2023/05/01 01:55:57;;;;;;;13.27;10.77;;;10.60;99.90;;;;;;6216544;28;20053;-77
2023/05/01 01:59:01;;;;;;;13.20;10.65;;;10.60;99.90;;;;;;6213854;28;20050;-77
2023/05/01 02:02:04;;;;;;;13.10;10.23;;;10.60;99.90;;;;;;6215773;28;20048;-77
2023/05/01 02:05:09;;;;;;;13.15;10.93;;;10.60;99.90;;;;;;6214594;28;20046;-77
2023/05/01 02:08:13;;;;;;;12.20;11.00;;;10.60;99.90;;;;;;6216020;28;20045;-77
2023/05/01 02:11:18;;;;;;;10.50;9.30;;;10.60;99.90;;;;;;6215958;28;20057;-77
2023/05/01 02:14:21;;;;;;;11.85;10.30;;;10.60;99.90;;;;;;6219305;28;20068;-77
2023/05/01 02:17:23;;;;;;;10.57;9.20;;;10.70;99.90;;;;;;6217824;28;20058;-77
2023/05/01 02:20:28;;;;;;;10.93;8.18;;;10.70;99.90;;;;;;6214599;28;20049;-77
2023/05/01 02:23:32;;;;;;;9.90;8.88;;;10.80;99.90;;;;;;6215804;28;20145;-77
2023/05/01 02:26:41;;;;;;;9.60;8.63;;;10.80;99.90;;;;;;6211346;28;20053;-76
2023/05/01 02:29:43;;;;;;;11.18;9.95;;;10.70;99.90;;;;;;6213288;28;20050;-76
2023/05/01 02:32:45;;;;;;;10.65;9.55;;;10.70;99.90;;;;;;6215462;28;20038;-76
2023/05/01 02:35:48;;;;;;;10.38;8.77;;;10.70;99.90;;;;;;6237063;22;20058;-77
2023/05/01 02:38:50;;;;;;;10.98;9.88;;;10.70;99.90;;;;;;6218859;28;20053;-78
2023/05/01 02:41:54;;;;;;;9.43;8.50;;;10.70;99.90;;;;;;6218663;28;20037;-77
2023/05/01 02:44:59;;;;;;;9.20;8.18;;;10.70;99.90;;;;;;6224659;28;20073;-78
2023/05/01 02:48:03;;;;;;;10.93;7.85;;;10.70;99.90;;;;;;6217345;28;20052;-78
2023/05/01 02:51:07;;;;;;;8.55;7.72;;;10.70;99.90;;;;;;6218054;28;20432;-78
2023/05/01 02:54:09;;;;;;;10.98;7.43;;;10.70;99.90;;;;;;6216574;28;20050;-78
2023/05/01 02:57:11;;;;;;;10.18;9.18;;;10.70;99.90;;;;;;6216397;28;20045;-77
2023/05/01 03:00:14;;;;;;;8.45;7.43;;;10.60;99.90;;;;;;6215357;28;20054;-77
2023/05/01 03:03:15;;;;;;;10.18;7.55;;;10.60;99.90;;;;;;6218023;28;20113;-77
2023/05/01 03:06:19;;;;;;;10.10;8.70;;;10.60;99.90;;;;;;6216366;28;20050;-78
2023/05/01 03:09:20;;;;;;;9.63;8.25;;;10.60;99.90;;;;;;6205091;28;20096;-78
2023/05/01 03:12:22;;;;;;;8.88;7.97;;;10.60;99.90;;;;;;6194950;28;20057;-77
2023/05/01 03:15:24;;;;;;;7.93;7.00;;;10.60;99.90;;;;;;6216450;28;20080;-77
2023/05/01 03:18:58;;;;;;;8.98;7.70;;;10.60;99.90;;;;;;6215568;28;20056;-78
2023/05/01 03:22:20;;;;;;;8.75;7.85;;;10.60;99.90;;;;;;6216355;28;20057;-78
2023/05/01 03:25:25;;;;;;;9.93;8.93;;;10.60;99.90;;;;;;6215134;28;20054;-78
2023/05/01 03:28:26;;;;;;;11.88;9.70;;;10.70;99.90;;;;;;6214523;28;20084;-79
2023/05/01 03:31:28;;;;;;;12.88;7.50;;;10.70;99.90;;;;;;6194642;28;20230;-78
2023/05/01 03:34:30;;;;;;;8.48;7.57;;;10.70;99.90;;;;;;6193496;28;20065;-79
2023/05/01 03:37:33;;;;;;;8.65;7.35;;;10.80;99.90;;;;;;6205756;28;20066;-79
2023/05/01 03:40:35;;;;;;;8.93;7.97;;;10.80;99.90;;;;;;6199947;28;20061;-79
2023/05/01 03:43:37;;;;;;;9.57;7.55;;;10.80;99.90;;;;;;6195175;28;20051;-79
2023/05/01 03:46:38;;;;;;;15.90;9.10;;;10.90;99.90;;;;;;6215052;28;20052;-79
2023/05/01 03:49:42;;;;;;;9.77;8.13;;;10.90;99.90;;;;;;6209017;28;20576;-78
2023/05/01 03:52:45;;;;;;;8.13;7.22;;;10.90;99.90;;;;;;6204617;28;20057;-79
2023/05/01 03:55:47;;;;;;;8.27;7.47;;;11.00;99.90;;;;;;6219494;28;20046;-79
2023/05/01 03:58:48;;;;;;;11.35;9.32;;;11.00;99.90;;;;;;6218262;28;20050;-78
2023/05/01 04:01:50;;;;;;;12.00;8.55;;;11.00;99.90;;;;;;6203617;28;20046;-77
2023/05/01 04:04:52;;;;;;;8.57;7.78;;;11.00;99.90;;;;;;6194388;28;20058;-78
2023/05/01 04:07:54;;;;;;;9.27;8.20;;;11.00;99.90;;;;;;6222347;28;20034;-78
2023/05/01 04:10:56;;;;;;;10.45;9.50;;;10.90;99.90;;;;;;6199224;28;20582;-78
2023/05/01 04:13:58;;;;;;;9.77;8.10;;;10.90;99.90;;;;;;6199375;28;20500;-78
2023/05/01 04:16:59;;;;;;;10.15;8.68;;;10.90;99.90;;;;;;6201023;28;20057;-78
2023/05/01 04:20:03;;;;;;;9.32;8.52;;;10.90;99.90;;;;;;6195227;28;20059;-78
2023/05/01 04:23:07;;;;;;;11.02;8.60;;;10.90;99.90;;;;;;6199195;28;20133;-78
2023/05/01 04:26:09;;;;;;;8.73;7.90;;;10.80;99.90;;;;;;6212978;28;20119;-78
2023/05/01 04:29:10;;;;;;;11.55;9.73;;;10.90;99.90;;;;;;6217857;28;20426;-78
2023/05/01 04:32:12;;;;;;;11.00;7.60;;;10.90;99.90;;;;;;6215671;28;20073;-78
2023/05/01 04:35:15;;;;;;;15.43;8.30;;;10.90;99.90;;;;;;6193787;28;20051;-78
2023/05/01 04:38:18;;;;;;;9.52;8.52;;;11.00;99.90;;;;;;6210485;28;20049;-78
2023/05/01 04:41:20;;;;;;;11.65;7.82;;;11.00;99.90;;;;;;6219682;28;20062;-78
2023/05/01 04:44:22;;;;;;;8.02;7.28;;;11.00;99.90;;;;;;6225540;28;20046;-77
2023/05/01 04:47:23;;;;;;;9.38;8.38;;;11.00;99.90;;;;;;6232935;28;20050;-77
2023/05/01 04:50:25;;;;;;;9.38;8.40;;;11.10;99.90;;;;;;6222533;28;20052;-78
2023/05/01 04:53:28;;;;;;;10.55;9.45;;;11.10;99.90;;;;;;6220938;28;20054;-78
2023/05/01 04:56:31;;;;;;;12.23;9.32;;;11.10;99.90;;;;;;6221578;28;20053;-78
2023/05/01 04:59:32;;;;;;;12.98;11.60;;;11.20;99.90;;;;;;6221812;28;20108;-78
2023/05/01 05:02:34;;;;;;;9.38;8.25;;;11.20;99.90;;;;;;6220374;28;20065;-78
2023/05/01 05:05:36;;;;;;;11.25;8.30;;;11.30;99.90;;;;;;6221409;28;20066;-78
2023/05/01 05:08:39;;;;;;;9.13;7.10;;;11.30;99.90;;;;;;6220617;28;20469;-78
2023/05/01 05:11:40;;;;;;;11.98;8.00;;;11.40;99.90;;;;;;6218710;28;20504;-78
2023/05/01 05:14:42;;;;;;;10.23;8.40;;;11.40;99.90;;;;;;6220771;28;20050;-79
2023/05/01 05:17:44;;;;;;;10.75;8.52;;;11.50;99.90;;;;;;6205886;28;20050;-77
2023/05/01 05:20:46;;;;;;;10.15;7.88;;;11.50;99.90;;;;;;6202736;28;20045;-77
2023/05/01 05:23:49;;;;;;;10.98;9.00;;;11.60;99.90;;;;;;6220239;28;20049;-77
2023/05/01 05:26:51;;;;;;;9.32;7.95;;;11.70;99.90;;;;;;6220232;28;20041;-78
2023/05/01 05:29:52;;;;;;;12.07;7.72;;;11.80;99.90;;;;;;6219317;28;20046;-78
2023/05/01 05:32:54;;;;;;;9.55;8.25;;;12.00;99.90;;;;;;6219392;28;20050;-78
2023/05/01 05:35:58;;;;;;;8.60;7.40;;;12.10;99.90;;;;;;6219271;28;20050;-77
2023/05/01 05:39:01;;;;;;;10.32;8.65;;;12.30;99.90;;;;;;6219726;28;20081;-78
2023/05/01 05:42:03;;;;;;;9.07;7.32;;;12.50;99.90;;;;;;6219267;28;20068;-78
2023/05/01 05:45:06;;;;;;;9.45;7.50;;;12.70;99.90;;;;;;6218418;28;20051;-78
2023/05/01 05:48:08;;;;;;;10.85;8.10;;;12.80;99.90;;;;;;6219516;28;20061;-77
2023/05/01 05:51:09;;;;;;;7.40;6.47;;;12.90;99.90;;;;;;6225167;28;20057;-77
2023/05/01 05:54:12;;;;;;;8.70;7.90;;;12.90;99.90;;;;;;6229292;28;20057;-78
2023/05/01 05:57:14;;;;;;;8.80;7.32;;;13.00;99.90;;;;;;6221011;28;20050;-78
2023/05/01 06:00:17;;;;;;;7.63;6.90;;;13.00;99.90;;;;;;6220777;28;20076;-78
2023/05/01 06:03:19;;;;;;;7.90;7.18;;;13.00;99.90;;;;;;6218295;28;20042;-77
2023/05/01 06:06:21;;;;;;;11.40;7.13;;;13.00;99.90;;;;;;6217031;28;20057;-77
2023/05/01 06:09:25;;;;;;;9.77;8.20;;;13.10;99.90;;;;;;6218363;28;20717;-78
2023/05/01 06:12:28;;;;;;;8.48;7.50;;;13.20;99.90;;;;;;6218466;28;20060;-77
2023/05/01 06:15:30;;;;;;;9.57;7.35;;;13.30;99.90;;;;;;6219027;28;20050;-77
2023/05/01 06:18:48;;;;;;;9.75;6.88;;;13.40;99.90;;;;;;6218761;28;20045;-78
2023/05/01 06:21:52;;;;;;;;;;;13.50;99.90;;;;;;6219380;28;20377;-78
2023/05/01 06:25:05;;;;;;;12.77;7.45;;;13.60;99.90;;;;;;6217958;28;20307;-78
2023/05/01 06:28:07;;;;;;;7.18;6.47;;;13.70;99.90;;;;;;6216623;28;20054;-78
2023/05/01 06:31:09;;;;;;;8.60;7.15;;;13.70;99.90;;;;;;6194797;28;20070;-77
2023/05/01 06:34:11;;;;;;;8.63;7.22;;;13.70;99.90;;;;;;6212541;28;20411;-78
2023/05/01 06:37:13;;;;;;;7.50;6.68;;;13.70;99.90;;;;;;6217282;28;20054;-78
2023/05/01 06:40:16;;;;;;;6.97;6.30;;;13.70;99.90;;;;;;6218218;28;20057;-78
2023/05/01 06:43:18;;;;;;;8.68;7.63;;;13.70;99.90;;;;;;6218034;28;20038;-78
2023/05/01 06:46:20;;;;;;;9.45;7.63;;;13.80;99.90;;;;;;6218525;28;20061;-78
2023/05/01 06:49:22;;;;;;;7.57;6.65;;;13.80;99.90;;;;;;6218073;28;20053;-78
2023/05/01 06:52:24;;;;;;;7.50;6.80;;;13.80;99.90;;;;;;6219227;28;20041;-78
2023/05/01 06:55:29;;;;;;;8.13;6.63;;;13.90;99.90;;;;;;6219488;28;20046;-78
2023/05/01 06:58:31;;;;;;;58.72;46.17;;;14.00;99.90;;;;;;6225638;28;20046;-78
2023/05/01 07:01:33;;;;;;;7.97;6.90;;;14.10;99.90;;;;;;6212230;28;20074;-79
2023/05/01 07:04:35;;;;;;;6.88;6.28;;;14.10;99.90;;;;;;6199370;28;20049;-78
2023/05/01 07:07:37;;;;;;;7.65;6.95;;;14.10;99.90;;;;;;6221231;28;20050;-78
2023/05/01 07:10:39;;;;;;;5.90;5.40;;;14.20;99.90;;;;;;6219739;28;20053;-78
2023/05/01 07:13:41;;;;;;;6.90;6.30;;;14.30;99.90;;;;;;6219241;28;20045;-78
2023/05/01 07:16:43;;;;;;;9.57;6.32;;;14.30;99.90;;;;;;6216705;28;20072;-78
2023/05/01 07:19:45;;;;;;;6.88;5.90;;;14.30;99.90;;;;;;6218968;28;20141;-78
2023/05/01 07:22:46;;;;;;;6.90;5.38;;;14.40;99.90;;;;;;6217259;28;20660;-78
2023/05/01 07:25:49;;;;;;;6.20;5.65;;;14.40;99.90;;;;;;6217505;28;20054;-78
2023/05/01 07:28:51;;;;;;;7.03;6.30;;;14.40;99.90;;;;;;6217527;28;20053;-78
2023/05/01 07:31:53;;;;;;;6.88;6.18;;;14.40;99.90;;;;;;6219820;28;20045;-78
2023/05/01 07:34:54;;;;;;;8.60;5.30;;;14.40;99.90;;;;;;6194640;28;20034;-78
2023/05/01 07:37:56;;;;;;;6.72;6.13;;;14.40;99.90;;;;;;6193160;28;20054;-78
2023/05/01 07:40:59;;;;;;;8.15;7.10;;;14.30;99.90;;;;;;6200812;28;20046;-79
2023/05/01 07:44:01;;;;;;;6.45;5.85;;;14.30;99.90;;;;;;6217658;28;20424;-77
2023/05/01 07:47:03;;;;;;;6.75;6.07;;;14.30;99.90;;;;;;6218838;28;20428;-78
2023/05/01 07:50:11;;;;;;;9.57;7.07;;;14.40;99.90;;;;;;6217812;28;20192;-78
2023/05/01 07:53:12;;;;;;;7.63;6.80;;;14.40;99.90;;;;;;6214365;28;20034;-78
2023/05/01 07:56:15;;;;;;;9.23;7.07;;;14.50;99.90;;;;;;6216911;28;20068;-77
2023/05/01 07:59:17;;;;;;;7.13;6.53;;;14.60;99.90;;;;;;6213545;28;20077;-78
2023/05/01 08:02:19;;;;;;;12.98;10.07;;;14.70;99.90;;;;;;6217786;28;20049;-77
2023/05/01 08:05:20;;;;;;;9.32;7.47;;;14.90;99.90;;;;;;6204076;28;20065;-77
2023/05/01 08:08:22;;;;;;;16.52;9.43;;;15.10;99.90;;;;;;6200288;28;20049;-77
2023/05/01 08:11:25;;;;;;;9.10;8.20;;;15.40;99.90;;;;;;6210570;28;20057;-79
2023/05/01 08:14:27;;;;;;;12.98;11.73;;;15.50;99.90;;;;;;6213233;28;20096;-78
2023/05/01 08:17:29;;;;;;;25.83;21.15;;;15.60;99.90;;;;;;6217730;28;20054;-79
2023/05/01 08:20:30;;;;;;;9.07;7.88;;;15.60;99.90;;;;;;6216214;28;20538;-78
2023/05/01 08:23:33;;;;;;;8.63;7.40;;;15.60;99.90;;;;;;6216713;28;20046;-79
2023/05/01 08:26:36;;;;;;;9.80;9.00;;;15.70;99.90;;;;;;6216648;28;20049;-78
2023/05/01 08:29:37;;;;;;;10.35;9.10;;;15.80;99.90;;;;;;6217185;28;20145;-77
2023/05/01 08:32:39;;;;;;;8.55;6.60;;;15.70;99.90;;;;;;6212806;28;20664;-78
2023/05/01 08:35:41;;;;;;;9.02;7.88;;;15.80;99.90;;;;;;6197866;28;20050;-78
2023/05/01 08:38:43;;;;;;;10.20;7.40;;;15.90;99.90;;;;;;6218095;28;20046;-78
2023/05/01 08:41:47;;;;;;;8.48;7.63;;;16.20;99.90;;;;;;6206006;28;20049;-78
2023/05/01 08:44:49;;;;;;;7.93;7.22;;;16.50;99.90;;;;;;6191837;28;20084;-78
2023/05/01 08:47:54;;;;;;;8.07;7.10;;;16.90;99.90;;;;;;6193972;28;20054;-78
2023/05/01 08:50:58;;;;;;;7.38;6.65;;;17.40;99.90;;;;;;6209276;28;20086;-80
2023/05/01 08:54:03;;;;;;;9.60;7.18;;;18.20;99.90;;;;;;6197017;28;20059;-79
2023/05/01 08:57:08;;;;;;;6.70;6.00;;;18.70;99.90;;;;;;6195457;28;20509;-78
2023/05/01 09:00:14;;;;;;;6.90;6.20;;;19.20;99.70;;;;;;6194695;28;20046;-78
2023/05/01 09:03:17;;;;;;;9.15;5.53;;;20.00;98.50;;;;;;6210401;28;20038;-81
2023/05/01 09:06:20;;;;;;;6.50;5.72;;;20.30;97.80;;;;;;6208640;28;20046;-77
2023/05/01 09:09:21;;;;;;;6.30;5.70;;;20.80;96.90;;;;;;6208601;28;20050;-77
2023/05/01 09:12:26;;;;;;;7.45;6.78;;;21.10;95.90;;;;;;6210828;28;20053;-78
2023/05/01 09:15:28;;;;;;;8.88;6.22;;;21.20;95.20;;;;;;6221047;28;20073;-78
2023/05/01 09:18:31;;;;;;;7.20;5.75;;;21.20;94.00;;;;;;6209580;28;20401;-77
2023/05/01 09:21:32;;;;;;;7.15;6.53;;;20.60;93.70;;;;;;6211040;28;20928;-79
2023/05/01 09:24:34;;;;;;;6.70;6.05;;;20.00;93.90;;;;;;6215344;28;20057;-79
2023/05/01 09:27:38;;;;;;;6.60;6.00;;;19.50;94.00;;;;;;6206437;28;20081;-79
2023/05/01 09:30:40;;;;;;;9.02;6.60;;;19.20;94.30;;;;;;6207435;28;20050;-77
2023/05/01 09:33:52;;;;;;;8.70;6.53;;;19.10;94.40;;;;;;6208876;28;20053;-78
2023/05/01 09:36:54;;;;;;;8.38;7.45;;;18.90;94.50;;;;;;6206299;28;20045;-78
2023/05/01 09:40:07;;;;;;;9.77;6.90;;;18.70;94.80;;;;;;6205562;28;20065;-76
2023/05/01 09:43:10;;;;;;;6.65;6.05;;;18.30;94.80;;;;;;6206878;28;20061;-78
2023/05/01 09:46:12;;;;;;;12.38;7.10;;;18.10;95.30;;;;;;6204946;28;20050;-78
2023/05/01 09:49:14;;;;;;;7.50;6.85;;;17.90;95.30;;;;;;6198447;28;20090;-79
2023/05/01 09:52:16;;;;;;;7.22;6.50;;;17.80;95.80;;;;;;6184100;28;20062;-78
2023/05/01 09:55:18;;;;;;;9.30;7.43;;;17.90;95.50;;;;;;6186257;28;20065;-78
2023/05/01 09:58:28;;;;;;;7.60;6.78;;;17.70;95.60;;;;;;6178994;28;20045;-78
2023/05/01 10:01:39;;;;;;;7.20;6.60;;;17.80;96.40;;;;;;6182185;28;20053;-78
2023/05/01 10:04:42;;;;;;;12.13;7.32;;;18.40;96.40;;;;;;6185393;28;20053;-78
2023/05/01 10:07:57;;;;;;;9.68;8.25;;;19.20;96.10;;;;;;6192196;28;20416;-78
2023/05/01 10:11:03;;;;;;;12.27;7.55;;;19.50;94.20;;;;;;6192706;28;20523;-79
2023/05/01 10:14:10;;;;;;;8.35;7.55;;;19.50;94.00;;;;;;6191605;28;20109;-79
2023/05/01 10:17:21;;;;;;;7.63;6.75;;;19.20;93.40;;;;;;6200415;28;21854;-78
2023/05/01 10:20:23;;;;;;;9.90;8.65;;;19.20;93.80;;;;;;6205517;28;20050;-79
2023/05/01 10:23:25;;;;;;;7.70;7.05;;;19.00;93.90;;;;;;6204532;28;20058;-77
2023/05/01 10:26:27;;;;;;;8.90;8.10;;;18.80;94.50;;;;;;6195070;28;20049;-80
2023/05/01 10:29:31;;;;;;;9.32;8.43;;;19.30;94.50;;;;;;6192641;28;20428;-78
2023/05/01 10:32:34;;;;;;;8.45;7.75;;;19.80;94.20;;;;;;6191862;28;20039;-79
2023/05/01 10:35:39;;;;;;;6.90;6.30;;;20.20;94.00;;;;;;6193196;28;20051;-77
2023/05/01 10:38:44;;;;;;;6.00;5.13;;;20.80;93.40;;;;;;6190306;28;20073;-79
2023/05/01 10:42:02;;;;;;;7.22;5.78;;;20.90;92.20;;;;;;6190645;28;20058;-80
2023/05/01 10:45:29;;;;;;;6.30;5.68;;;20.80;91.70;;;;;;6189240;28;20069;-78
2023/05/01 10:49:03;;;;;;;6.38;5.82;;;20.80;92.00;;;;;;6191578;28;20566;-78
2023/05/01 10:52:16;;;;;;;7.90;7.22;;;21.00;91.50;;;;;;6199470;28;20128;-77
2023/05/01 10:55:54;;;;;;;7.82;7.00;;;20.90;91.20;;;;;;6227080;28;20061;-79
2023/05/01 10:58:58;;;;;;;7.85;7.15;;;20.90;91.10;;;;;;6130967;28;20054;-78
2023/05/01 11:02:26;;;;;;;14.77;13.27;;;21.10;91.20;;;;;;6213138;28;20061;-79
2023/05/01 11:06:05;;;;;;;14.97;13.37;;;21.10;90.70;;;;;;6218155;28;20049;-79
2023/05/01 11:09:25;;;;;;;;;;;21.00;90.80;;;;;;6222267;28;20053;-79
2023/05/01 11:12:53;;;;;;;9.20;8.18;;;21.00;90.80;;;;;;6221163;28;20574;-80
2023/05/01 11:15:55;;;;;;;5.88;5.18;;;21.00;90.90;;;;;;6216906;28;20052;-79
2023/05/01 11:18:58;;;;;;;13.02;11.55;;;21.10;90.70;;;;;;6198066;28;20038;-80
2023/05/01 11:22:02;;;;;;;14.15;10.02;;;21.30;90.60;;;;;;6195398;28;20061;-78
2023/05/01 11:25:20;;;;;;;13.18;11.95;;;21.60;90.20;;;;;;6203583;28;20057;-79
2023/05/01 11:28:22;;;;;;;8.90;6.43;;;22.10;89.00;;;;;;6217839;28;20049;-80
2023/05/01 11:31:25;;;;;;;7.55;6.32;;;22.40;87.40;;;;;;6220023;28;20045;-80
2023/05/01 11:34:35;;;;;;;6.13;5.43;;;22.60;86.30;;;;;;6222067;28;20057;-78
2023/05/01 11:37:43;;;;;;;6.25;5.75;;;22.80;85.20;;;;;;6216886;28;20042;-78
2023/05/01 11:40:45;;;;;;;9.68;8.77;;;22.70;83.40;;;;;;6216302;28;20209;-79
2023/05/01 11:43:51;;;;;;;6.75;6.15;;;22.60;83.10;;;;;;6199847;28;20511;-80
2023/05/01 11:46:57;;;;;;;6.60;6.00;;;22.70;82.70;;;;;;6198680;28;20057;-82
2023/05/01 11:50:01;;;;;;;9.57;6.15;;;22.80;82.00;;;;;;6196574;28;20058;-82
2023/05/01 11:53:06;;;;;;;6.78;6.13;;;22.70;81.60;;;;;;6195746;28;20042;-81
2023/05/01 11:56:19;;;;;;;10.75;6.88;;;22.60;81.00;;;;;;6194770;28;20511;-82
2023/05/01 11:59:21;;;;;;;6.25;5.75;;;22.60;82.70;;;;;;6210032;28;20050;-81
2023/05/01 12:02:22;;;;;;;7.55;6.35;;;22.70;82.80;;;;;;6211267;28;20049;-82
2023/05/01 12:05:29;;;;;;;8.13;7.05;;;22.80;82.60;;;;;;6219018;28;20042;-83
2023/05/01 12:08:31;;;;;;;8.70;6.85;;;23.00;82.30;;;;;;6214753;28;20053;-81
2023/05/01 12:11:34;;;;;;;8.77;6.95;;;23.00;81.60;;;;;;6210693;28;20042;-80
2023/05/01 12:14:36;;;;;;;7.57;6.88;;;23.00;81.10;;;;;;6212324;28;20092;-82
2023/05/01 12:17:38;;;;;;;15.27;8.05;;;23.00;81.00;;;;;;6200467;28;20053;-83
2023/05/01 12:20:42;;;;;;;13.23;7.55;;;22.90;80.80;;;;;;6196455;28;20192;-81
2023/05/01 12:23:45;;;;;;;8.60;7.35;;;22.70;80.80;;;;;;6202546;28;20050;-86
2023/05/01 12:26:46;;;;;;;7.38;6.68;;;22.50;81.00;;;;;;6198603;28;20050;-83
2023/05/01 12:29:49;;;;;;;8.95;7.35;;;22.30;81.50;;;;;;6206483;28;20044;-82
2023/05/01 12:32:50;;;;;;;7.60;6.88;;;22.10;82.30;;;;;;6211040;28;20055;-81
2023/05/01 12:35:54;;;;;;;8.77;7.47;;;21.90;82.80;;;;;;6206975;28;20058;-82
2023/05/01 12:38:59;;;;;;;8.75;5.90;;;21.80;83.50;;;;;;6218002;28;20053;-80
2023/05/01 12:42:01;;;;;;;8.27;7.47;;;21.70;83.80;;;;;;6216162;28;20165;-83
2023/05/01 12:45:03;;;;;;;11.60;8.93;;;21.50;83.70;;;;;;6222803;28;20047;-83
2023/05/01 12:48:11;;;;;;;12.27;7.28;;;21.40;84.00;;;;;;6227265;28;20425;-82
2023/05/01 12:51:20;;;;;;;8.52;7.72;;;21.30;84.40;;;;;;6213621;28;20053;-82
2023/05/01 12:54:22;;;;;;;10.40;8.20;;;21.20;84.80;;;;;;6216910;28;20034;-83
2023/05/01 12:57:24;;;;;;;9.23;7.93;;;21.20;84.70;;;;;;6213111;28;20733;-80
2023/05/01 13:00:26;;;;;;;9.73;7.78;;;21.20;84.70;;;;;;6209656;28;20505;-80
2023/05/01 13:03:29;;;;;;;11.00;10.00;;;21.10;85.00;;;;;;6199759;28;20608;-82
2023/05/01 13:06:33;;;;;;;9.43;7.28;;;21.10;85.10;;;;;;6202235;28;20039;-81
2023/05/01 13:09:35;;;;;;;8.88;8.07;;;21.20;85.00;;;;;;6212590;28;20049;-83
2023/05/01 13:12:45;;;;;;;11.00;9.35;;;21.30;84.90;;;;;;6215690;28;20050;-81
2023/05/01 13:15:46;;;;;;;14.77;9.35;;;21.50;84.60;;;;;;6203431;28;20050;-81
2023/05/01 13:18:50;;;;;;;9.20;8.15;;;21.70;84.50;;;;;;6199459;28;20049;-82
2023/05/01 13:21:53;;;;;;;9.02;8.23;;;22.10;84.10;;;;;;6210857;28;20786;-82
2023/05/01 13:24:55;;;;;;;12.07;9.23;;;22.50;82.60;;;;;;6215689;28;20049;-82
2023/05/01 13:27:56;;;;;;;10.32;9.32;;;22.70;81.30;;;;;;6221368;28;20054;-82
2023/05/01 13:30:58;;;;;;;7.95;7.25;;;22.70;80.90;;;;;;6223774;28;20068;-81
2023/05/01 13:34:01;;;;;;;9.63;8.63;;;22.70;80.80;;;;;;6218572;28;20515;-82
2023/05/01 13:37:04;;;;;;;9.20;8.48;;;22.80;80.60;;;;;;6216868;28;20150;-82
2023/05/01 13:40:07;;;;;;;8.25;7.50;;;22.70;80.30;;;;;;6214313;28;20070;-81
2023/05/01 13:43:13;;;;;;;8.60;7.90;;;22.90;80.20;;;;;;6198160;28;20402;-82
2023/05/01 13:46:18;;;;;;;8.43;7.65;;;23.00;79.90;;;;;;6213782;28;20119;-82
2023/05/01 13:49:21;;;;;;;8.90;8.10;;;23.10;80.00;;;;;;6218811;28;20069;-81
2023/05/01 13:52:25;;;;;;;9.98;8.98;;;23.30;79.60;;;;;;6218005;28;20057;-82
2023/05/01 13:55:26;;;;;;;9.82;8.75;;;23.60;78.50;;;;;;6199718;28;20038;-81
2023/05/01 13:58:29;;;;;;;8.15;7.45;;;23.70;77.60;;;;;;6215305;28;20053;-85
2023/05/01 14:01:30;;;;;;;9.13;7.95;;;23.60;77.30;;;;;;6217687;28;20049;-81
2023/05/01 14:04:35;;;;;;;10.93;9.85;;;23.60;77.30;;;;;;6214540;28;20704;-82
2023/05/01 14:07:43;;;;;;;7.95;7.25;;;23.30;77.20;;;;;;6221682;28;20483;-82
2023/05/01 14:10:45;;;;;;;8.23;7.47;;;23.20;77.30;;;;;;6201223;28;20050;-81
2023/05/01 14:13:50;;;;;;;9.52;7.78;;;23.10;77.60;;;;;;6195766;28;20045;-82
2023/05/01 14:16:52;;;;;;;8.43;7.72;;;23.10;77.80;;;;;;6213784;28;20073;-82
2023/05/01 14:19:54;;;;;;;13.55;9.68;;;23.00;78.00;;;;;;6231456;28;20042;-81
2023/05/01 14:22:59;;;;;;;11.50;8.27;;;22.90;78.00;;;;;;6222526;28;20042;-84
2023/05/01 14:26:00;;;;;;;11.30;10.23;;;22.70;78.30;;;;;;6219891;28;20041;-81
2023/05/01 14:29:02;;;;;;;10.27;9.27;;;22.50;78.10;;;;;;6217692;28;20050;-82
2023/05/01 14:32:04;;;;;;;9.50;8.70;;;22.20;78.00;;;;;;6207031;28;20106;-80
2023/05/01 14:35:09;;;;;;;7.97;7.38;;;21.80;78.00;;;;;;6209254;28;20049;-81
2023/05/01 14:38:15;;;;;;;8.05;7.25;;;21.60;78.60;;;;;;6208349;28;20047;-81
2023/05/01 14:41:18;;;;;;;4.82;3.13;;;21.30;79.00;;;;;;6206087;28;20056;-82
2023/05/01 14:44:20;;;;;;;4.20;2.47;;;20.60;78.70;;;;;;6208558;28;20046;-82
2023/05/01 14:47:22;;;;;;;3.42;2.70;;;19.90;79.00;;;;;;6222066;28;20404;-80
2023/05/01 14:50:24;;;;;;;5.28;1.48;;;19.00;81.60;;;;;;6216933;28;20046;-81
2023/05/01 14:53:32;;;;;;;3.95;2.88;;;18.00;84.90;;;;;;6213667;28;20045;-81
2023/05/01 14:56:33;;;;;;;2.88;1.95;;;17.20;88.10;;;;;;6218633;28;20050;-80
2023/05/01 14:59:35;;;;;;;1.95;1.60;;;16.70;90.00;;;;;;6219748;28;20053;-80
2023/05/01 15:02:37;;;;;;;4.93;1.98;;;16.00;90.60;;;;;;6220241;28;20047;-80
2023/05/01 15:05:40;;;;;;;3.38;3.00;;;15.60;92.10;;;;;;6203950;28;20062;-79
2023/05/01 15:08:43;;;;;;;3.67;3.20;;;15.20;93.80;;;;;;6194951;28;20572;-81
2023/05/01 15:11:45;;;;;;;6.13;3.20;;;14.90;95.70;;;;;;6209005;28;20057;-81
2023/05/01 15:14:46;;;;;;;6.28;3.67;;;14.80;97.60;;;;;;6197080;28;20050;-82
2023/05/01 15:17:48;;;;;;;3.55;3.25;;;14.90;99.50;;;;;;6197881;28;20083;-81
2023/05/01 15:20:50;;;;;;;4.70;3.42;;;15.00;99.90;;;;;;6199247;28;20050;-81
2023/05/01 15:23:53;;;;;;;2.75;2.50;;;15.20;99.90;;;;;;6206942;28;20066;-81
2023/05/01 15:26:54;;;;;;;3.28;2.30;;;15.40;99.90;;;;;;6212938;28;20046;-81
2023/05/01 15:29:56;;;;;;;3.95;3.53;;;15.40;99.90;;;;;;6211327;28;20052;-80
2023/05/01 15:32:58;;;;;;;4.85;3.13;;;15.70;99.90;;;;;;6202926;28;20042;-80
2023/05/01 15:36:00;;;;;;;3.20;2.92;;;16.00;99.90;;;;;;6191186;28;20054;-79
2023/05/01 15:39:04;;;;;;;4.80;2.40;;;16.10;99.90;;;;;;6211389;28;20057;-80
2023/05/01 15:42:06;;;;;;;3.47;2.65;;;16.50;99.90;;;;;;6198232;28;20508;-80
2023/05/01 15:45:09;;;;;;;2.80;2.60;;;16.60;99.90;;;;;;6190527;28;20049;-80
2023/05/01 15:48:11;;;;;;;3.13;2.63;;;16.80;99.90;;;;;;6192888;28;20501;-80
2023/05/01 15:51:12;;;;;;;3.30;2.80;;;16.90;99.90;;;;;;6216662;28;20411;-80
2023/05/01 15:54:15;;;;;;;3.70;3.40;;;16.80;99.90;;;;;;6197989;28;20101;-82